Time;durP1;ratioP1;P1;durP2;ratioP2;P2;SDS_P1;SDS_P2;PMS_P1;PMS_P2;Temp;Humidity;BMP_temperature;BMP_pressure;BME280_temperature;BME280_humidity;BME280_pressure;Samples;Min_cycle;Max_cycle;Signal;HPM_P1;HPM_P2
2021/11/09 00:01:59;;;;;;;1.40;1.30;;;23.60;39.30;;;;;;1785687;80;21149;-10
2021/11/09 00:05:13;;;;;;;1.40;1.25;;;23.70;39.30;;;;;;1785327;80;21176;-10
2021/11/09 00:07:47;;;;;;;1.80;1.40;;;23.60;39.20;;;;;;1785407;80;21094;-11
2021/11/09 00:10:12;;;;;;;2.10;1.47;;;23.50;39.60;;;;;;1784901;80;21531;-11
2021/11/09 00:12:45;;;;;;;1.87;1.30;;;23.50;39.50;;;;;;1785596;80;21629;-11
2021/11/09 00:15:15;;;;;;;2.02;1.50;;;23.50;39.30;;;;;;1785646;80;21528;-11
2021/11/09 00:17:44;;;;;;;2.17;1.22;;;23.50;39.30;;;;;;1785706;80;21149;-11
2021/11/09 00:20:13;;;;;;;1.72;1.50;;;23.50;39.70;;;;;;1785733;80;21536;-11
2021/11/09 00:22:41;;;;;;;2.17;1.60;;;23.50;39.60;;;;;;1785645;80;21638;-11
2021/11/09 00:25:10;;;;;;;2.08;1.45;;;23.50;39.40;;;;;;1785598;80;21508;-11
2021/11/09 00:27:38;;;;;;;1.30;1.20;;;23.50;39.30;;;;;;1785689;79;21571;-11
2021/11/09 00:30:07;;;;;;;1.75;1.10;;;23.50;39.30;;;;;;1785707;80;21139;-11
2021/11/09 00:32:34;;;;;;;2.22;1.50;;;23.50;39.70;;;;;;1786632;77;21240;-11
2021/11/09 00:35:02;;;;;;;1.98;1.45;;;23.50;39.80;;;;;;1787938;80;21532;-11
2021/11/09 00:37:29;;;;;;;2.17;1.37;;;23.50;39.40;;;;;;1787878;80;21047;-11
2021/11/09 00:39:57;;;;;;;2.10;1.52;;;23.60;39.40;;;;;;1787857;80;21103;-11
2021/11/09 00:42:25;;;;;;;1.65;1.50;;;23.60;39.50;;;;;;1787961;80;21666;-11
2021/11/09 00:44:52;;;;;;;1.55;1.30;;;23.50;39.50;;;;;;1787880;80;21082;-11
2021/11/09 00:47:20;;;;;;;2.33;1.42;;;23.60;39.80;;;;;;1787873;80;21126;-11
2021/11/09 00:49:47;;;;;;;1.77;1.50;;;23.50;39.40;;;;;;1787821;80;21078;-11
2021/11/09 00:52:15;;;;;;;2.05;1.62;;;23.60;39.30;;;;;;1787860;80;21200;-11
2021/11/09 00:54:42;;;;;;;1.80;1.35;;;23.50;39.30;;;;;;1787876;80;21580;-11
2021/11/09 00:57:10;;;;;;;1.52;1.35;;;23.50;39.70;;;;;;1787879;80;21067;-11
2021/11/09 00:59:38;;;;;;;1.75;1.60;;;23.60;39.80;;;;;;1787892;80;21519;-11
2021/11/09 01:02:06;;;;;;;1.60;1.50;;;23.50;39.50;;;;;;1787891;80;21500;-11
2021/11/09 01:04:34;;;;;;;1.75;1.40;;;23.50;39.30;;;;;;1787929;80;21114;-11
2021/11/09 01:07:03;;;;;;;1.87;1.47;;;23.50;39.30;;;;;;1787814;80;21095;-11
2021/11/09 01:09:33;;;;;;;1.92;1.45;;;23.50;39.70;;;;;;1787862;80;21058;-11
2021/11/09 01:12:01;;;;;;;2.37;1.50;;;23.50;39.60;;;;;;1787894;80;21504;-11
2021/11/09 01:14:28;;;;;;;1.67;1.22;;;23.60;39.40;;;;;;1787933;80;21492;-11
2021/11/09 01:16:56;;;;;;;1.90;1.60;;;23.60;39.30;;;;;;1787846;80;21157;-11
2021/11/09 01:19:27;;;;;;;2.83;1.72;;;23.50;39.30;;;;;;1787870;80;21579;-11
2021/11/09 01:21:55;;;;;;;2.00;1.72;;;23.50;39.30;;;;;;1788040;80;21103;-11
2021/11/09 01:24:22;;;;;;;1.72;1.57;;;23.50;39.60;;;;;;1787844;80;21536;-11
2021/11/09 01:26:50;;;;;;;2.75;1.70;;;23.50;39.30;;;;;;1787841;79;21557;-11
2021/11/09 01:29:18;;;;;;;2.65;2.17;;;23.60;39.30;;;;;;1787851;80;21079;-11
2021/11/09 01:31:45;;;;;;;1.98;1.60;;;23.50;39.30;;;;;;1787837;80;21122;-10
2021/11/09 01:34:13;;;;;;;1.80;1.57;;;23.50;39.40;;;;;;1785867;79;21102;-10
2021/11/09 01:36:40;;;;;;;2.08;1.75;;;23.50;39.40;;;;;;1785659;80;21540;-10
2021/11/09 01:39:08;;;;;;;1.70;1.57;;;23.50;40.00;;;;;;1785641;80;21525;-10
2021/11/09 01:41:36;;;;;;;1.52;1.42;;;23.50;39.50;;;;;;1785601;80;21090;-10
2021/11/09 01:44:08;;;;;;;2.12;1.70;;;23.50;39.40;;;;;;1785626;80;21512;-10
2021/11/09 01:46:35;;;;;;;1.62;1.40;;;23.50;39.70;;;;;;1785539;80;21642;-10
2021/11/09 01:49:04;;;;;;;2.98;1.90;;;23.50;39.80;;;;;;1785855;80;21082;-10
2021/11/09 01:51:32;;;;;;;2.50;2.05;;;23.50;39.50;;;;;;1785607;80;21078;-10
2021/11/09 01:54:01;;;;;;;2.20;1.90;;;23.50;39.50;;;;;;1785593;80;21082;-10
2021/11/09 01:56:30;;;;;;;1.98;1.52;;;23.50;39.20;;;;;;1785622;80;21527;-10
2021/11/09 01:58:57;;;;;;;2.70;1.70;;;23.50;39.80;;;;;;1785561;80;21555;-10
2021/11/09 02:01:27;;;;;;;2.08;1.80;;;23.50;40.00;;;;;;1785586;80;21110;-10
2021/11/09 02:03:56;;;;;;;1.95;1.67;;;23.50;39.60;;;;;;1785620;80;21095;-10
2021/11/09 02:06:24;;;;;;;1.75;1.52;;;23.50;39.40;;;;;;1785599;80;21066;-10
2021/11/09 02:09:04;;;;;;;2.02;1.75;;;23.50;39.30;;;;;;1785627;80;21605;-11
2021/11/09 02:11:32;;;;;;;1.50;1.35;;;23.50;39.60;;;;;;1785286;80;21497;-10
2021/11/09 02:14:00;;;;;;;1.90;1.70;;;23.50;39.70;;;;;;1785535;79;21082;-10
2021/11/09 02:16:28;;;;;;;1.80;1.60;;;23.60;39.40;;;;;;1785708;79;21535;-10
2021/11/09 02:18:55;;;;;;;2.33;1.70;;;23.50;39.10;;;;;;1785556;80;21134;-10
2021/11/09 02:21:23;;;;;;;1.50;1.37;;;23.50;39.20;;;;;;1785590;80;21133;-10
2021/11/09 02:23:51;;;;;;;1.87;1.30;;;23.60;39.70;;;;;;1785618;79;21040;-10
2021/11/09 02:26:20;;;;;;;2.50;1.67;;;23.50;39.70;;;;;;1785550;79;21067;-10
2021/11/09 02:28:49;;;;;;;1.77;1.62;;;23.60;39.30;;;;;;1785613;80;21039;-10
2021/11/09 02:31:17;;;;;;;1.72;1.60;;;23.50;39.20;;;;;;1785658;80;21091;-10
2021/11/09 02:33:44;;;;;;;3.27;1.60;;;23.60;39.30;;;;;;1801798;79;21111;-10
2021/11/09 02:36:15;;;;;;;2.62;1.70;;;23.60;39.60;;;;;;1816217;79;21155;-10
2021/11/09 02:38:43;;;;;;;2.17;1.45;;;23.60;39.50;;;;;;1816500;79;21028;-10
2021/11/09 02:41:11;;;;;;;3.02;1.77;;;23.60;39.30;;;;;;1816186;79;21083;-10
2021/11/09 02:43:39;;;;;;;1.80;1.57;;;23.60;39.20;;;;;;1816264;79;21564;-10
2021/11/09 02:48:55;;;;;;;1.72;1.35;;;23.60;39.50;;;;;;1816279;79;21141;-10
2021/11/09 02:51:22;;;;;;;1.82;1.12;;;23.60;39.30;;;;;;1814378;79;21099;-10
2021/11/09 02:54:04;;;;;;;2.40;1.65;;;23.60;39.30;;;;;;1815888;79;21098;-10
2021/11/09 02:56:30;;;;;;;2.30;1.60;;;23.60;39.10;;;;;;1815550;78;21101;-10
2021/11/09 03:01:35;;;;;;;1.80;1.70;;;23.60;39.50;;;;;;1816304;79;21200;-11
2021/11/09 03:04:07;;;;;;;1.85;1.50;;;23.60;39.40;;;;;;1815353;79;21095;-11
2021/11/09 03:06:36;;;;;;;1.42;1.30;;;23.60;39.10;;;;;;1815034;79;21109;-11
2021/11/09 03:09:09;;;;;;;1.65;1.40;;;23.60;39.10;;;;;;1815983;78;21135;-11
2021/11/09 03:11:34;;;;;;;1.75;1.40;;;23.60;39.20;;;;;;1815910;79;21460;-11
2021/11/09 03:14:02;;;;;;;2.65;1.70;;;23.60;39.50;;;;;;1816251;79;21153;-10
2021/11/09 03:16:33;;;;;;;1.67;1.57;;;23.60;39.30;;;;;;1816226;79;21545;-11
2021/11/09 03:19:16;;;;;;;1.98;1.47;;;23.60;39.10;;;;;;1816009;79;21091;-10
2021/11/09 03:46:41;;;;;;;2.30;1.70;;;23.50;39.10;;;;;;1785650;80;21520;-10
2021/11/09 03:49:10;;;;;;;1.95;1.20;;;23.50;39.10;;;;;;1785685;80;21074;-11
2021/11/09 03:51:38;;;;;;;1.98;1.67;;;23.50;39.90;;;;;;1785673;80;21551;-11
2021/11/09 03:54:11;;;;;;;2.17;1.62;;;23.50;38.90;;;;;;1785667;80;21134;-11
2021/11/09 03:59:17;;;;;;;1.50;1.40;;;23.50;38.70;;;;;;1785609;79;21086;-10
2021/11/09 04:14:57;;;;;;;1.95;1.62;;;23.40;38.90;;;;;;1750814;82;21122;-11
2021/11/09 04:19:57;;;;;;;1.95;1.72;;;23.50;38.60;;;;;;1750725;82;21088;-10
2021/11/09 04:35:39;;;;;;;1.20;1.10;;;23.50;38.50;;;;;;1750591;81;21123;-10
2021/11/09 04:45:08;;;;;;;2.10;1.90;;;23.50;38.70;;;;;;1766608;80;21075;-11
2021/11/09 04:49:05;;;;;;;1.60;1.50;;;23.50;38.50;;;;;;1785635;80;21122;-10
2021/11/09 05:02:38;;;;;;;2.08;1.50;;;23.40;38.60;;;;;;1785612;80;21137;-9
2021/11/09 05:10:20;;;;;;;2.20;2.00;;;23.40;38.50;;;;;;1785647;80;21555;-10
2021/11/09 05:12:45;;;;;;;2.40;1.80;;;23.40;38.60;;;;;;1785894;79;21059;-11
2021/11/09 05:15:13;;;;;;;1.90;1.62;;;23.40;39.00;;;;;;1785603;80;21051;-11
2021/11/09 05:17:41;;;;;;;2.35;2.10;;;23.50;39.00;;;;;;1785638;80;21528;-11
2021/11/09 05:20:10;;;;;;;3.08;2.15;;;23.50;38.50;;;;;;1785609;80;21610;-11
2021/11/09 05:22:37;;;;;;;2.58;2.10;;;23.50;38.40;;;;;;1785721;80;21532;-11
2021/11/09 05:25:07;;;;;;;2.20;2.00;;;23.50;38.20;;;;;;1785628;80;21047;-10
2021/11/09 05:27:34;;;;;;;2.12;1.82;;;23.50;38.70;;;;;;1785596;79;21169;-11
2021/11/09 05:30:01;;;;;;;3.02;1.95;;;23.50;38.40;;;;;;1785641;80;21052;-10
2021/11/09 05:32:29;;;;;;;2.22;1.77;;;23.50;38.30;;;;;;1785587;80;21075;-11
2021/11/09 05:34:56;;;;;;;2.20;1.70;;;23.50;38.20;;;;;;1785508;79;21154;-11
2021/11/09 05:37:30;;;;;;;3.02;2.20;;;23.50;38.10;;;;;;1785623;80;21542;-11
2021/11/09 05:39:55;;;;;;;2.10;1.62;;;23.50;38.20;;;;;;1784638;80;21153;-11
2021/11/09 05:42:23;;;;;;;2.10;1.50;;;23.50;38.60;;;;;;1785647;79;21063;-11
2021/11/09 05:44:50;;;;;;;2.62;2.20;;;23.50;38.30;;;;;;1785635;80;21547;-10
2021/11/09 05:47:18;;;;;;;2.27;1.98;;;23.50;38.10;;;;;;1785603;80;21540;-11
2021/11/09 05:49:46;;;;;;;2.37;1.98;;;23.50;38.00;;;;;;1785610;80;21087;-11
2021/11/09 05:52:13;;;;;;;2.30;1.70;;;23.50;38.00;;;;;;1785531;80;21163;-11
2021/11/09 05:54:41;;;;;;;2.30;1.80;;;23.50;38.40;;;;;;1785550;80;21078;-11
2021/11/09 05:57:08;;;;;;;2.10;1.65;;;23.60;38.50;;;;;;1785600;80;21083;-11
2021/11/09 05:59:36;;;;;;;2.90;2.02;;;23.50;38.00;;;;;;1785617;80;21086;-11
2021/11/09 06:02:04;;;;;;;2.72;2.15;;;23.50;38.00;;;;;;1785593;80;21512;-11
2021/11/09 06:04:31;;;;;;;2.45;1.82;;;23.60;38.00;;;;;;1785605;80;21594;-11
2021/11/09 06:06:58;;;;;;;1.98;1.62;;;23.50;38.40;;;;;;1785551;80;21055;-11
2021/11/09 06:09:26;;;;;;;2.75;2.00;;;23.50;38.50;;;;;;1785575;80;21079;-11
2021/11/09 06:11:54;;;;;;;2.80;1.90;;;23.50;38.10;;;;;;1785602;80;21591;-11
2021/11/09 06:14:21;;;;;;;1.98;1.82;;;23.50;38.00;;;;;;1785593;80;21578;-11
2021/11/09 06:16:49;;;;;;;1.98;1.50;;;23.50;38.00;;;;;;1785601;80;21599;-11
2021/11/09 06:19:16;;;;;;;2.05;1.50;;;23.50;38.50;;;;;;1785594;80;21110;-11
2021/11/09 06:21:43;;;;;;;2.08;1.75;;;23.50;38.50;;;;;;1785573;80;21493;-11
2021/11/09 06:24:11;;;;;;;2.85;1.92;;;23.50;38.20;;;;;;1785586;79;21145;-10
2021/11/09 06:26:38;;;;;;;2.12;1.70;;;23.50;38.20;;;;;;1785509;79;21543;-11
2021/11/09 06:29:06;;;;;;;2.00;1.50;;;23.50;38.00;;;;;;1785569;80;21090;-11
2021/11/09 06:31:34;;;;;;;2.00;1.80;;;23.50;38.50;;;;;;1785662;80;21082;-11
2021/11/09 06:34:02;;;;;;;1.95;1.67;;;23.60;38.60;;;;;;1785722;80;21501;-10
2021/11/09 06:36:29;;;;;;;2.27;2.00;;;23.50;38.10;;;;;;1785711;79;21153;-11
2021/11/09 06:38:58;;;;;;;2.92;1.62;;;23.50;38.00;;;;;;1785606;80;21126;-11
2021/11/09 06:41:25;;;;;;;2.60;1.67;;;23.50;37.90;;;;;;1785581;80;21074;-11
2021/11/09 06:43:53;;;;;;;2.17;1.95;;;23.50;38.40;;;;;;1785674;80;21529;-11
2021/11/09 06:46:21;;;;;;;1.82;1.65;;;23.50;38.30;;;;;;1785679;80;21056;-11
2021/11/09 06:48:49;;;;;;;2.15;1.90;;;23.50;38.00;;;;;;1785595;80;21086;-11
2021/11/09 06:51:17;;;;;;;1.87;1.75;;;23.50;38.00;;;;;;1785607;80;21188;-11
2021/11/09 06:53:44;;;;;;;1.90;1.72;;;23.50;37.80;;;;;;1785586;80;21082;-10
2021/11/09 06:56:12;;;;;;;1.85;1.70;;;23.50;38.30;;;;;;1785740;79;21071;-11
2021/11/09 06:58:39;;;;;;;2.60;1.80;;;23.60;38.20;;;;;;1785573;80;21496;-11
2021/11/09 07:01:07;;;;;;;1.98;1.80;;;23.50;37.90;;;;;;1785550;80;21137;-11
2021/11/09 07:03:34;;;;;;;2.30;1.98;;;23.50;37.70;;;;;;1785628;80;21141;-11
2021/11/09 07:06:05;;;;;;;2.15;1.70;;;23.50;37.80;;;;;;1785585;80;21553;-11
2021/11/09 07:08:31;;;;;;;2.27;1.82;;;23.60;37.80;;;;;;1785420;80;21090;-10
2021/11/09 07:10:59;;;;;;;2.42;1.98;;;23.50;38.20;;;;;;1785476;80;21070;-11
2021/11/09 07:13:27;;;;;;;2.42;1.92;;;23.50;38.00;;;;;;1785612;80;21596;-11
2021/11/09 07:15:55;;;;;;;2.52;1.95;;;23.50;37.80;;;;;;1785538;80;21524;-11
2021/11/09 07:18:23;;;;;;;2.20;1.92;;;23.50;37.90;;;;;;1785458;80;21095;-10
2021/11/09 07:20:51;;;;;;;2.42;1.80;;;23.50;37.90;;;;;;1785434;80;21555;-11
2021/11/09 07:23:18;;;;;;;2.50;1.95;;;23.50;38.30;;;;;;1785487;80;21068;-11
2021/11/09 07:25:46;;;;;;;2.62;2.20;;;23.50;38.00;;;;;;1785504;79;21086;-11
2021/11/09 07:28:14;;;;;;;3.02;1.80;;;23.50;37.90;;;;;;1785568;80;21059;-11
2021/11/09 07:30:43;;;;;;;1.85;1.70;;;23.50;37.80;;;;;;1785452;80;21544;-11
2021/11/09 07:33:11;;;;;;;2.25;1.37;;;23.50;37.80;;;;;;1785512;80;21646;-11
2021/11/09 07:35:39;;;;;;;2.83;1.80;;;23.50;38.80;;;;;;1786290;79;21176;-11
2021/11/09 07:38:06;;;;;;;2.30;2.10;;;23.50;38.10;;;;;;1787674;80;21575;-11
2021/11/09 07:40:34;;;;;;;2.92;2.00;;;23.50;38.00;;;;;;1787549;80;21157;-11
2021/11/09 07:43:02;;;;;;;2.30;2.02;;;23.50;37.90;;;;;;1787562;80;21083;-11
2021/11/09 07:45:29;;;;;;;2.35;1.75;;;23.50;37.90;;;;;;1787734;80;21528;-11
2021/11/09 07:47:58;;;;;;;2.08;1.70;;;23.50;38.20;;;;;;1787615;80;21579;-11
2021/11/09 07:50:26;;;;;;;2.15;1.87;;;23.50;38.20;;;;;;1787638;80;21133;-10
2021/11/09 07:52:57;;;;;;;1.92;1.80;;;23.50;38.00;;;;;;1787715;80;21568;-10
2021/11/09 07:55:22;;;;;;;2.72;2.08;;;23.50;38.00;;;;;;1787510;80;21079;-10
2021/11/09 07:57:57;;;;;;;1.90;1.70;;;23.50;38.30;;;;;;1787702;80;21544;-10
2021/11/09 08:00:22;;;;;;;3.08;1.75;;;23.50;38.50;;;;;;1786347;80;21543;-10
2021/11/09 08:03:11;;;;;;;2.30;2.10;;;23.50;38.30;;;;;;1787683;80;21606;-10
2021/11/09 08:06:02;;;;;;;2.27;2.08;;;23.50;38.30;;;;;;1787189;80;21047;-10
2021/11/09 08:08:16;;;;;;;2.12;1.80;;;23.50;38.20;;;;;;1783360;80;21086;-10
2021/11/09 08:10:43;;;;;;;2.50;1.60;;;23.50;38.70;;;;;;1787678;80;21090;-10
2021/11/09 08:13:10;;;;;;;3.50;1.90;;;23.50;38.70;;;;;;1787682;79;21639;-10
2021/11/09 08:15:38;;;;;;;3.33;2.10;;;23.50;38.40;;;;;;1787667;80;21622;-10
2021/11/09 08:18:06;;;;;;;2.87;2.37;;;23.50;38.30;;;;;;1787906;80;21583;-9
2021/11/09 08:20:37;;;;;;;2.72;2.02;;;23.50;38.30;;;;;;1787803;80;21179;-10
2021/11/09 08:23:04;;;;;;;2.12;1.70;;;23.50;38.90;;;;;;1787736;80;21078;-10
2021/11/09 08:25:32;;;;;;;2.33;2.00;;;23.50;38.90;;;;;;1787770;80;21555;-10
2021/11/09 08:28:01;;;;;;;2.80;2.00;;;23.50;38.70;;;;;;1787646;79;21637;-10
2021/11/09 08:30:32;;;;;;;3.80;2.30;;;23.50;38.50;;;;;;1787756;80;21539;-9
2021/11/09 08:33:00;;;;;;;2.27;2.08;;;23.60;38.80;;;;;;1787754;80;21125;-10
2021/11/09 08:35:28;;;;;;;2.17;1.72;;;23.60;39.00;;;;;;1787514;79;21153;-11
2021/11/09 08:37:56;;;;;;;2.37;2.00;;;23.60;39.20;;;;;;1785635;80;21552;-11
2021/11/09 08:40:23;;;;;;;1.98;1.77;;;23.50;38.90;;;;;;1785541;80;21063;-11
2021/11/09 08:42:57;;;;;;;2.85;2.25;;;23.60;38.80;;;;;;1785537;80;21063;-11
2021/11/09 08:48:04;;;;;;;1.92;1.72;;;23.60;39.30;;;;;;1785547;79;21078;-11
2021/11/09 08:50:25;;;;;;;2.30;1.92;;;23.60;39.30;;;;;;1783930;80;21063;-11
2021/11/09 08:52:55;;;;;;;2.15;1.95;;;23.60;39.20;;;;;;1785588;80;21082;-11
2021/11/09 08:55:35;;;;;;;2.33;2.10;;;23.60;39.10;;;;;;1785526;80;21098;-11
2021/11/09 09:01:03;;;;;;;2.95;1.98;;;23.60;39.00;;;;;;1784166;80;21060;-11
2021/11/09 09:06:06;;;;;;;2.65;2.10;;;23.60;39.30;;;;;;1785485;80;21087;-10
2021/11/09 09:08:33;;;;;;;2.70;2.30;;;23.60;39.40;;;;;;1785606;80;21090;-10
2021/11/09 09:11:02;;;;;;;3.27;2.08;;;23.60;39.40;;;;;;1785538;80;21488;-10
2021/11/09 09:13:30;;;;;;;1.92;1.72;;;23.60;39.80;;;;;;1785479;80;21141;-10
2021/11/09 09:15:57;;;;;;;2.20;1.92;;;23.60;39.80;;;;;;1785549;80;21208;-10
2021/11/09 09:18:25;;;;;;;2.92;2.35;;;23.60;39.50;;;;;;1785673;79;21165;-10
2021/11/09 09:20:56;;;;;;;2.75;1.98;;;23.70;39.40;;;;;;1785605;80;21525;-10
2021/11/09 09:23:34;;;;;;;2.70;1.82;;;23.70;39.50;;;;;;1785034;80;21078;-10
2021/11/09 09:53:19;;;;;;;3.72;2.85;;;23.60;40.20;;;;;;1787743;80;21191;-10
2021/11/09 09:55:38;;;;;;;3.83;2.55;;;23.60;39.80;;;;;;1784448;80;21153;-10
2021/11/09 09:58:10;;;;;;;2.92;2.50;;;23.60;39.70;;;;;;1787526;80;21086;-10
2021/11/09 10:00:40;;;;;;;2.95;2.20;;;23.70;39.50;;;;;;1787803;80;21161;-10
2021/11/09 10:03:08;;;;;;;3.20;2.50;;;23.70;40.00;;;;;;1787564;80;21171;-10
2021/11/09 10:05:38;;;;;;;3.52;2.35;;;23.70;39.90;;;;;;1787805;80;21551;-10
2021/11/09 10:08:11;;;;;;;3.15;2.62;;;23.70;39.40;;;;;;1787790;80;21508;-10
2021/11/09 10:10:39;;;;;;;3.47;2.60;;;23.70;39.30;;;;;;1787896;80;21066;-10
2021/11/09 10:13:12;;;;;;;3.52;2.60;;;23.70;39.40;;;;;;1787760;80;21184;-10
2021/11/09 10:15:43;;;;;;;2.92;2.12;;;23.80;39.70;;;;;;1787865;80;21520;-10
2021/11/09 10:18:15;;;;;;;3.12;2.30;;;23.70;39.60;;;;;;1787352;80;21163;-10
2021/11/09 10:20:51;;;;;;;2.80;2.22;;;23.70;39.40;;;;;;1787748;80;21094;-10
2021/11/09 10:23:21;;;;;;;3.27;2.70;;;23.80;39.10;;;;;;1787133;80;21129;-10
2021/11/09 10:25:50;;;;;;;2.90;2.25;;;23.80;39.10;;;;;;1787139;79;21121;-10
2021/11/09 10:28:21;;;;;;;2.60;2.00;;;23.70;39.60;;;;;;1787793;80;21122;-10
2021/11/09 10:30:52;;;;;;;2.42;2.00;;;23.80;39.60;;;;;;1787394;80;21027;-10
2021/11/09 10:33:23;;;;;;;2.17;1.85;;;23.80;39.50;;;;;;1787533;80;21040;-10
2021/11/09 10:35:49;;;;;;;3.52;2.62;;;23.80;39.40;;;;;;1787518;80;21519;-10
2021/11/09 10:38:17;;;;;;;2.50;2.20;;;23.80;39.30;;;;;;1787878;79;21539;-10
2021/11/09 10:40:48;;;;;;;3.25;2.42;;;23.80;39.70;;;;;;1787716;80;21571;-10
2021/11/09 10:43:17;;;;;;;2.80;2.20;;;23.80;39.60;;;;;;1787787;80;21098;-11
2021/11/09 10:45:44;;;;;;;3.02;2.45;;;23.80;39.40;;;;;;1787597;80;21153;-11
2021/11/09 10:48:15;;;;;;;2.50;2.17;;;23.80;39.40;;;;;;1787659;80;21555;-10
2021/11/09 10:50:44;;;;;;;2.87;2.20;;;23.90;39.20;;;;;;1787741;80;21128;-9
2021/11/09 10:53:15;;;;;;;2.90;2.20;;;23.80;39.50;;;;;;1787822;80;21074;-12
2021/11/09 11:06:34;;;;;;;2.12;1.75;;;23.80;40.00;;;;;;1787778;80;21149;-10
2021/11/09 11:09:04;;;;;;;3.02;2.37;;;23.80;40.00;;;;;;1787732;80;21469;-10
2021/11/09 11:11:34;;;;;;;3.20;2.27;;;23.80;40.10;;;;;;1783404;80;21143;-10
2021/11/09 11:14:07;;;;;;;2.42;2.00;;;23.80;39.80;;;;;;1783432;80;21197;-10
2021/11/09 11:16:45;;;;;;;3.22;2.33;;;23.80;39.90;;;;;;1766789;80;21523;-10
2021/11/09 11:19:14;;;;;;;2.77;2.08;;;23.80;40.00;;;;;;1784087;80;21083;-10
2021/11/09 11:21:43;;;;;;;2.70;2.12;;;23.80;40.00;;;;;;1784096;80;21064;-10
2021/11/09 11:24:13;;;;;;;2.90;2.30;;;23.90;39.80;;;;;;1784191;80;21600;-10
2021/11/09 11:26:41;;;;;;;3.77;2.27;;;23.90;39.80;;;;;;1784082;79;21119;-10
2021/11/09 11:29:09;;;;;;;3.90;2.22;;;23.90;39.70;;;;;;1784107;80;21549;-10
2021/11/09 11:31:36;;;;;;;2.95;1.75;;;23.90;39.90;;;;;;1784021;80;21553;-10
2021/11/09 11:34:04;;;;;;;4.40;2.20;;;23.90;39.90;;;;;;1784000;80;21127;-10
2021/11/09 11:36:32;;;;;;;3.25;2.58;;;23.90;39.60;;;;;;1784086;80;21675;-10
2021/11/09 11:39:01;;;;;;;3.70;2.37;;;24.00;39.70;;;;;;1784479;78;21643;-10
2021/11/09 11:41:32;;;;;;;2.92;2.00;;;24.00;39.60;;;;;;1783823;80;21131;-10
2021/11/09 11:44:01;;;;;;;2.50;2.30;;;24.00;40.00;;;;;;1784563;79;21148;-10
2021/11/09 11:46:38;;;;;;;3.30;2.40;;;24.00;39.80;;;;;;1784306;80;21100;-10
2021/11/09 11:49:14;;;;;;;3.12;2.17;;;24.00;39.60;;;;;;1784240;80;21107;-10
2021/11/09 11:51:50;;;;;;;2.50;2.08;;;24.00;39.60;;;;;;1784357;80;21150;-10
2021/11/09 11:54:18;;;;;;;3.20;1.92;;;24.00;39.60;;;;;;1784504;80;21182;-10
2021/11/09 11:56:50;;;;;;;2.42;1.82;;;24.00;39.90;;;;;;1784466;80;21052;-10
2021/11/09 11:59:24;;;;;;;2.15;1.77;;;24.00;40.00;;;;;;1784428;80;21112;-10
2021/11/09 12:01:55;;;;;;;2.58;2.05;;;24.00;39.90;;;;;;1784501;80;21076;-10
2021/11/09 12:04:43;;;;;;;2.62;2.25;;;24.00;39.80;;;;;;1784589;80;21100;-10
2021/11/09 12:07:22;;;;;;;2.72;2.02;;;24.00;39.60;;;;;;1784411;80;21158;-10
2021/11/09 12:09:48;;;;;;;2.47;1.90;;;24.00;40.10;;;;;;1784001;80;21159;-10
2021/11/09 12:12:22;;;;;;;3.10;2.15;;;24.00;40.20;;;;;;1784541;80;21532;-10
2021/11/09 12:14:52;;;;;;;2.58;2.00;;;24.00;39.90;;;;;;1784455;80;21174;-10
2021/11/09 12:17:43;;;;;;;2.12;1.70;;;24.00;39.90;;;;;;1784461;80;21068;-10
2021/11/09 12:20:12;;;;;;;2.10;1.65;;;24.10;39.80;;;;;;1784504;80;21048;-10
2021/11/09 12:22:49;;;;;;;2.75;1.87;;;24.00;40.10;;;;;;1784580;80;21076;-10
2021/11/09 12:25:35;;;;;;;2.27;1.87;;;24.00;40.10;;;;;;1784579;80;21100;-10
2021/11/09 12:28:13;;;;;;;2.90;1.90;;;24.10;39.90;;;;;;1784329;79;21135;-10
2021/11/09 12:30:45;;;;;;;2.52;1.70;;;24.10;39.90;;;;;;1784506;80;21163;-10
2021/11/09 12:33:18;;;;;;;3.20;2.20;;;24.00;40.30;;;;;;1784444;80;21127;-10
2021/11/09 12:36:01;;;;;;;2.47;1.80;;;24.00;40.10;;;;;;1784665;80;21060;-10
2021/11/09 12:38:36;;;;;;;3.60;2.10;;;24.10;40.20;;;;;;1805242;79;21121;-10
2021/11/09 12:41:12;;;;;;;2.30;1.70;;;24.10;39.90;;;;;;1821299;79;21069;-10
2021/11/09 12:43:47;;;;;;;2.87;1.70;;;24.10;39.80;;;;;;1821415;79;21117;-10
2021/11/09 12:46:39;;;;;;;1.87;1.60;;;24.10;39.80;;;;;;1821338;79;21581;-10
2021/11/09 12:49:16;;;;;;;2.17;1.70;;;24.10;40.10;;;;;;1820001;79;21547;-10
2021/11/09 12:51:48;;;;;;;2.95;1.90;;;24.10;40.10;;;;;;1821312;79;21120;-10
2021/11/09 12:54:19;;;;;;;2.42;1.70;;;24.10;39.90;;;;;;1821331;79;21527;-10
2021/11/09 12:56:48;;;;;;;1.95;1.60;;;24.10;39.70;;;;;;1821005;79;21105;-10
2021/11/09 13:04:56;;;;;;;2.85;1.62;;;24.10;40.10;;;;;;1821260;79;21093;-10
2021/11/09 13:07:35;;;;;;;2.33;1.75;;;24.10;39.80;;;;;;1820717;79;21114;-10
2021/11/09 13:10:22;;;;;;;1.90;1.70;;;24.10;39.80;;;;;;1820706;79;21575;-10
2021/11/09 13:12:50;;;;;;;2.83;1.32;;;24.10;39.90;;;;;;1820690;79;21089;-10
2021/11/09 13:15:18;;;;;;;2.10;1.80;;;24.10;40.20;;;;;;1820924;79;21196;-10
2021/11/09 13:17:53;;;;;;;1.80;1.40;;;24.10;39.90;;;;;;1821229;79;21105;-10
2021/11/09 13:20:34;;;;;;;2.55;1.50;;;24.20;39.80;;;;;;1820938;79;21637;-11
2021/11/09 13:23:00;;;;;;;2.70;1.55;;;24.10;39.70;;;;;;1817913;79;21130;-10
2021/11/09 13:25:37;;;;;;;1.62;1.47;;;24.20;39.90;;;;;;1821271;79;21176;-10
2021/11/09 13:28:08;;;;;;;1.60;1.30;;;24.20;39.90;;;;;;1821160;77;21124;-10
2021/11/09 13:30:35;;;;;;;1.80;1.60;;;24.20;40.00;;;;;;1819549;79;21038;-10
2021/11/09 13:33:03;;;;;;;3.20;1.70;;;24.20;39.60;;;;;;1821266;79;21656;-10
2021/11/09 13:35:43;;;;;;;1.85;1.55;;;24.30;39.70;;;;;;1821213;79;21105;-10
2021/11/09 13:38:19;;;;;;;2.20;1.50;;;24.30;39.40;;;;;;1821081;79;21628;-10
2021/11/09 13:40:58;;;;;;;1.80;1.47;;;24.30;40.00;;;;;;1821274;79;21108;-10
2021/11/09 13:43:28;;;;;;;1.80;1.37;;;24.30;40.00;;;;;;1821247;79;21139;-10
2021/11/09 13:45:58;;;;;;;2.87;1.70;;;24.30;40.00;;;;;;1821208;79;21082;-10
2021/11/09 13:48:26;;;;;;;1.67;1.57;;;24.30;39.70;;;;;;1821336;79;21598;-10
2021/11/09 13:50:59;;;;;;;2.35;1.30;;;24.30;39.70;;;;;;1820870;79;21030;-10
2021/11/09 13:53:28;;;;;;;1.65;1.30;;;24.30;40.00;;;;;;1821371;79;21507;-10
2021/11/09 13:55:56;;;;;;;2.00;1.57;;;24.30;39.90;;;;;;1821116;79;21074;-10
2021/11/09 13:58:24;;;;;;;2.52;1.17;;;24.40;39.80;;;;;;1821078;79;21148;-10
2021/11/09 14:00:57;;;;;;;1.62;1.52;;;24.40;39.70;;;;;;1821162;79;21542;-10
2021/11/09 14:06:19;;;;;;;1.92;1.55;;;24.40;39.90;;;;;;1821112;79;21114;-10
2021/11/09 14:16:38;;;;;;;1.87;1.35;;;24.40;40.10;;;;;;1821106;79;21184;-10
2021/11/09 14:19:09;;;;;;;2.12;1.47;;;24.30;40.00;;;;;;1821142;79;21101;-10
2021/11/09 14:21:39;;;;;;;2.83;1.72;;;24.30;40.10;;;;;;1821308;79;21155;-10
2021/11/09 14:24:18;;;;;;;1.52;1.42;;;24.30;39.70;;;;;;1821240;79;21065;-10
2021/11/09 14:26:47;;;;;;;2.10;1.57;;;24.40;39.60;;;;;;1821243;77;21596;-10
2021/11/09 14:29:23;;;;;;;2.83;1.35;;;24.40;39.60;;;;;;1821128;79;21143;-10
2021/11/09 14:32:02;;;;;;;1.75;1.50;;;24.40;40.00;;;;;;1819980;79;21155;-10
2021/11/09 14:34:31;;;;;;;1.82;1.50;;;24.40;40.10;;;;;;1821239;79;21530;-10
2021/11/09 14:37:13;;;;;;;1.75;1.30;;;24.40;40.10;;;;;;1821231;79;21109;-10
2021/11/09 14:39:45;;;;;;;2.12;1.62;;;24.40;39.70;;;;;;1817910;79;21167;-10
2021/11/09 14:42:20;;;;;;;2.47;1.50;;;24.40;39.80;;;;;;1820561;79;21554;-10
2021/11/09 14:45:09;;;;;;;2.27;1.42;;;24.40;40.00;;;;;;1820257;79;21164;-10
2021/11/09 14:47:42;;;;;;;1.87;1.50;;;24.40;39.70;;;;;;1819563;79;21568;-10
2021/11/09 14:50:15;;;;;;;2.30;1.25;;;24.40;39.60;;;;;;1814299;79;21167;-10
2021/11/09 14:52:43;;;;;;;1.67;1.30;;;24.40;39.60;;;;;;1820849;79;21082;-10
2021/11/09 14:55:18;;;;;;;1.37;1.27;;;24.40;39.60;;;;;;1821290;79;21074;-10
2021/11/09 14:57:42;;;;;;;;;;;24.40;39.80;;;;;;1823008;79;21070;-10
2021/11/09 15:00:10;;;;;;;1.82;1.42;;;24.30;39.90;;;;;;1821249;79;20199;-10
2021/11/09 15:02:37;;;;;;;2.22;1.30;;;24.30;39.90;;;;;;1821189;79;21531;-10
2021/11/09 15:05:10;;;;;;;1.70;1.40;;;24.50;39.60;;;;;;1821167;79;21625;-10
2021/11/09 15:07:43;;;;;;;2.08;1.30;;;24.50;39.50;;;;;;1820385;79;21601;-10
2021/11/09 15:29:05;;;;;;;1.50;1.17;;;24.40;40.20;;;;;;1821295;79;21121;-10
2021/11/09 15:31:28;;;;;;;1.52;1.42;;;24.40;39.30;;;;;;1819577;79;21103;-10
2021/11/09 15:34:13;;;;;;;1.20;1.10;;;24.50;39.30;;;;;;1821367;79;21089;-10
2021/11/09 15:36:49;;;;;;;2.75;1.37;;;24.50;39.60;;;;;;1819897;79;21611;-10
2021/11/09 15:39:14;;;;;;;1.87;1.40;;;24.50;39.40;;;;;;1809383;79;21589;-10
2021/11/09 15:41:43;;;;;;;1.70;1.40;;;24.50;39.40;;;;;;1784560;80;21517;-10
2021/11/09 15:44:12;;;;;;;2.12;1.67;;;24.50;39.30;;;;;;1784434;80;21085;-10
2021/11/09 15:46:39;;;;;;;2.00;1.62;;;24.50;39.30;;;;;;1784491;80;21542;-10
2021/11/09 15:49:08;;;;;;;2.05;1.25;;;24.50;39.60;;;;;;1784490;80;21529;-10
2021/11/09 15:51:35;;;;;;;1.37;1.27;;;24.50;39.60;;;;;;1784407;80;21099;-10